Latest Weather Observations for Coolangatta

IDN60801

Issued at 6:03 pm EDT Monday 5 December 2022 (issued every 10 minutes, with the page automatically refreshed every 10 minutes)

About weather observations | Map of weather stations | Latest weather observations for NSW | Other Formats
Station Details ID: 040717 Name: COOLANGATTA Lat: -28.17 Lon: 153.51 Height: 4.0 m
Data from the previous 72 hours. | See also: Recent months at Coolangatta

Observations at Coolangatta are collected in the Queensland time zone, which does not include daylight savings during the summer period. Therefore 'Rain since 9am' totals and other values are based on the Queensland time zone.

Date/Time
EDT
Temp
°C
App
Temp
°C
Dew
Point
°C
Rel
Hum
%
Delta-T
°C
Wind Press
QNH
hPa
Press
MSL
hPa
Rain since
9am
mm
Dir  Spd
km/h
Gust
km/h
Spd
kts
Gust
kts
05/06:00pm 25.0 25.0 18.2 66 4.3 ESE 15 20 8 11 1007.0 1006.9 0.2
05/05:30pm 25.0 25.0 18.0 65 4.4 ESE 15 20 8 11 1006.9 1006.8 0.2
05/05:00pm 25.4 25.0 18.1 64 4.6 ESE 17 22 9 12 1006.8 1006.7 0.2
05/04:30pm 25.9 25.0 18.3 63 4.8 ESE 20 26 11 14 1006.9 1006.8 0.2
05/04:00pm 26.0 24.8 18.4 63 4.8 E 22 28 12 15 1007.0 1006.9 0.2
05/03:30pm 26.5 24.9 18.4 61 5.1 ESE 24 30 13 16 1007.1 1007.0 0.2
05/03:00pm 26.2 24.3 17.6 59 5.4 ESE 24 32 13 17 1007.6 1007.5 0.2
05/02:30pm 26.9 25.1 17.9 57 5.7 ESE 24 33 13 18 1007.9 1007.8 0.2
05/02:00pm 26.6 24.5 17.1 56 5.9 ESE 24 32 13 17 1008.3 1008.2 0.2
05/01:30pm 27.3 25.3 17.5 55 6.2 ESE 24 32 13 17 1008.7 1008.6 0.2
05/01:00pm 27.4 25.7 18.1 57 5.9 ESE 24 30 13 16 1009.0 1008.9 0.2
05/12:30pm 27.6 27.4 17.7 54 6.3 SSE 15 22 8 12 1009.5 1009.4 0.2
05/12:00pm 27.3 26.8 17.8 56 6.0 S 17 26 9 14 1009.8 1009.7 0.2
05/11:30am 26.6 25.8 17.1 56 5.9 S 17 28 9 15 1010.1 1010.0 0.2
05/11:00am 25.7 24.4 16.8 58 5.5 S 19 24 10 13 1010.4 1010.3 0.2
05/10:30am 25.0 24.2 17.0 61 5.0 S 17 26 9 14 1010.6 1010.5 0.2
05/10:00am 24.6 23.1 16.8 62 4.8 SSW 20 30 11 16 1010.9 1010.8 3.0
05/09:30am 24.1 22.5 16.6 63 4.6 S 20 32 11 17 1011.1 1011.0 3.0
05/09:00am 23.3 21.7 16.1 64 4.4 SSW 19 28 10 15 1011.0 1010.9 3.0
05/08:30am 22.6 21.3 15.9 66 4.0 SSW 17 28 9 15 1011.0 1010.9 3.0
05/08:00am 21.9 21.1 16.2 70 3.4 SSW 15 22 8 12 1010.9 1010.8 3.0
05/07:30am 20.9 19.1 15.4 71 3.3 SSW 19 28 10 15 1010.8 1010.7 3.0
05/07:00am 20.2 19.1 15.4 74 2.8 SSW 15 20 8 11 1010.5 1010.4 3.0
05/06:30am 19.1 18.0 15.2 78 2.3 SSW 15 20 8 11 1010.2 1010.1 3.0
05/06:00am 18.7 17.2 15.2 80 2.1 SSW 17 22 9 12 1010.1 1010.0 3.0
05/05:30am 18.3 17.5 15.2 82 1.8 SSW 13 20 7 11 1010.0 1009.9 3.0
05/05:00am 18.7 17.6 15.4 81 1.9 SSW 15 24 8 13 1010.0 1009.9 3.0
05/04:30am 18.7 17.2 15.4 81 1.9 SSW 17 26 9 14 1010.0 1009.9 3.0
05/04:00am 18.7 17.8 15.9 84 1.7 SSW 15 20 8 11 1010.2 1010.1 3.0
05/03:30am 18.5 17.6 15.9 85 1.5 SSW 15 24 8 13 1010.3 1010.2 3.0
05/03:00am 18.4 17.5 15.8 85 1.5 SSW 15 24 8 13 1010.6 1010.5 3.0
05/02:30am 18.6 17.3 15.8 84 1.7 SSW 17 24 9 13 1011.0 1010.9 3.0
05/02:00am 18.4 17.5 15.8 85 1.5 SSW 15 20 8 11 1011.4 1011.3 3.0
05/01:30am 18.5 17.6 15.9 85 1.5 SSW 15 26 8 14 1011.9 1011.8 3.0
05/01:00am 18.5 18.0 15.9 85 1.5 S 13 19 7 10 1012.4 1012.3 3.0
05/12:30am 18.8 17.9 15.9 83 1.7 S 15 24 8 13 1012.8 1012.7 3.0
05/12:00am 18.7 17.5 16.1 85 1.5 S 17 24 9 13 1013.3 1013.2 3.0
 
Date/Time
EDT
Temp
°C
App
Temp
°C
Dew
Point
°C
Rel
Hum
%
Delta-T
°C
Wind Press
QNH
hPa
Press
MSL
hPa
Rain since
9am
mm
Dir  Spd
km/h
Gust
km/h
Spd
kts
Gust
kts
04/11:30pm 18.2 17.4 16.2 88 1.2 SSW 15 20 8 11 1013.6 1013.5 3.0
04/11:00pm 18.5 16.9 16.1 86 1.4 S 19 26 10 14 1013.8 1013.7 3.0
04/10:30pm 18.6 17.0 16.0 85 1.5 SSW 19 24 10 13 1014.0 1013.9 3.0
04/10:00pm 18.9 17.6 15.8 82 1.8 SSW 17 26 9 14 1014.0 1013.9 3.0
04/09:30pm 18.9 17.5 15.6 81 1.9 SSW 17 24 9 13 1013.7 1013.6 3.0
04/09:00pm 19.2 17.9 15.9 81 2.0 S 17 26 9 14 1013.6 1013.5 3.0
04/08:30pm 19.2 17.9 15.7 80 2.1 SSW 17 24 9 13 1013.5 1013.4 3.0
04/08:00pm 19.2 17.3 15.7 80 2.1 SSW 20 30 11 16 1013.3 1013.2 3.0
04/07:30pm 19.1 17.3 16.1 83 1.8 S 20 30 11 16 1013.3 1013.2 3.0
04/07:00pm 19.6 17.8 16.1 80 2.1 S 20 30 11 16 1013.0 1012.9 3.0
04/06:30pm 19.8 18.2 16.4 81 2.0 S 20 30 11 16 1012.7 1012.6 3.0
04/06:00pm 20.7 18.8 15.7 73 3.0 S 20 28 11 15 1012.4 1012.3 3.0
04/05:30pm 21.2 18.3 15.1 68 3.6 S 24 37 13 20 1012.2 1012.1 3.0
04/05:00pm 21.5 19.4 16.2 72 3.2 S 22 32 12 17 1012.1 1012.0 3.0
04/04:30pm 22.2 20.5 17.1 73 3.1 S 22 35 12 19 1012.1 1012.0 3.0
04/04:00pm 20.1 17.7 16.5 80 2.2 S 24 37 13 20 1012.2 1012.1 3.0
04/03:30pm 21.5 19.2 16.7 74 2.9 S 24 35 13 19 1012.3 1012.2 2.8
04/03:00pm 22.3 20.7 17.4 74 3.0 S 22 35 12 19 1012.6 1012.5 2.8
04/02:30pm 22.6 21.8 18.4 77 2.6 S 20 33 11 18 1012.7 1012.6 2.8
04/02:00pm 21.5 19.9 17.5 78 2.5 S 22 33 12 18 1013.0 1012.9 2.8
04/01:32pm 20.6 18.9 18.0 85 1.6 SSE 24 35 13 19 1013.2 1013.1 2.8
04/01:30pm 20.4 18.6 17.8 85 1.6 SSE 24 35 13 19 1013.2 1013.1 2.8
04/01:00pm 20.0 19.9 18.7 92 0.8 SSE 17 26 9 14 1013.5 1013.4 2.8
04/12:30pm 19.9 16.7 17.3 85 1.6 SSE 30 43 16 23 1013.9 1013.8 0.6
04/12:29pm 19.8 16.1 17.0 84 1.7 SE 32 43 17 23 1013.9 1013.8 0.4
04/12:06pm 22.6 19.4 16.2 67 3.9 SSE 28 46 15 25 1013.6 1013.5 0.2
04/12:00pm 23.4 21.0 15.5 61 4.7 SSE 22 33 12 18 1013.5 1013.4 0.2
04/11:30am 23.7 20.3 15.7 61 4.8 S 28 41 15 22 1013.6 1013.5 0.2
04/11:00am 24.0 22.1 16.8 64 4.4 SSE 22 33 12 18 1013.9 1013.8 0.2
04/10:30am 22.6 20.7 16.6 69 3.7 SSW 22 33 12 18 1014.2 1014.1 0.0
04/10:00am 22.1 20.2 16.8 72 3.2 SSW 22 35 12 19 1014.2 1014.1 16.2
04/09:30am 20.3 18.9 16.5 79 2.3 SSW 19 24 10 13 1014.5 1014.4 16.2
04/09:00am 18.4 17.2 16.2 87 1.3 SSW 17 24 9 13 1014.8 1014.7 16.2
04/08:50am 18.3 16.7 15.9 86 1.4 SSW 19 24 10 13 1014.8 1014.7 16.2
04/08:30am 18.6 16.8 15.5 82 1.8 SSW 19 28 10 15 1014.7 1014.6 16.2
04/08:00am 18.2 17.1 16.4 89 1.1 SW 17 24 9 13 1014.7 1014.6 16.2
04/07:30am 17.3 16.1 16.0 92 0.8 SSW 17 28 9 15 1014.5 1014.4 16.2
04/07:00am 16.6 15.1 15.3 92 0.8 SSW 17 22 9 12 1014.4 1014.3 16.0
04/06:51am 16.6 15.9 15.3 92 0.8 S 13 20 7 11 1014.2 1014.1 16.0
04/06:30am 16.7 15.4 14.9 89 1.0 SSE 15 20 8 11 1014.1 1014.0 15.4
04/06:15am 17.3 16.3 14.6 84 1.6 S 13 17 7 9 1013.9 1013.8 13.8
04/06:00am 17.4 15.6 14.5 83 1.7 SSW 17 24 9 13 1013.4 1013.3 13.4
04/05:30am 17.6 16.0 13.9 79 2.1 SSW 15 22 8 12 1013.5 1013.4 13.4
04/05:00am 17.6 16.1 14.1 80 2.0 SSW 15 20 8 11 1013.1 1013.0 13.4
04/04:30am 17.3 15.7 14.0 81 1.9 SSW 15 24 8 13 1013.0 1012.9 13.4
04/04:00am 17.3 15.8 14.2 82 1.8 SSW 15 24 8 13 1013.1 1013.0 13.4
04/03:30am 17.3 15.7 14.0 81 1.9 SSW 15 22 8 12 1013.1 1013.0 13.4
04/03:00am 17.6 15.7 14.1 80 2.0 SSW 17 28 9 15 1013.2 1013.1 13.4
04/02:30am 17.3 16.1 14.0 81 1.9 SSW 13 20 7 11 1013.5 1013.4 13.4
04/02:00am 17.4 16.3 14.3 82 1.8 SSW 13 17 7 9 1013.8 1013.7 13.4
04/01:30am 17.5 16.1 14.4 82 1.8 SSW 15 22 8 12 1013.9 1013.8 13.4
04/01:00am 17.7 16.0 14.8 83 1.7 SSW 17 22 9 12 1014.3 1014.2 13.4
04/12:30am 17.5 15.9 15.0 85 1.5 SSW 17 24 9 13 1014.7 1014.6 13.4
04/12:00am 17.4 16.3 15.2 87 1.3 SSW 15 24 8 13 1015.1 1015.0 13.4
 
Date/Time
EDT
Temp
°C
App
Temp
°C
Dew
Point
°C
Rel
Hum
%
Delta-T
°C
Wind Press
QNH
hPa
Press
MSL
hPa
Rain since
9am
mm
Dir  Spd
km/h
Gust
km/h
Spd
kts
Gust
kts
03/11:30pm 17.2 16.4 15.2 88 1.2 SSW 13 22 7 12 1015.2 1015.1 13.4
03/11:00pm 17.3 16.4 15.8 91 0.9 SSW 15 19 8 10 1015.2 1015.1 13.2
03/10:30pm 17.2 16.3 15.9 92 0.8 SSW 15 20 8 11 1015.2 1015.1 13.2
03/10:28pm 17.2 16.8 16.1 93 0.7 SSW 13 20 7 11 1015.2 1015.1 13.2
03/10:14pm 17.1 18.0 16.0 93 0.6 S 6 13 3 7 1015.2 1015.1 13.0
03/10:11pm 17.2 18.5 16.1 93 0.7 S 4 13 2 7 1015.3 1015.2 13.0
03/10:00pm 17.2 17.9 16.1 93 0.6 SSW 7 13 4 7 1015.2 1015.1 12.2
03/09:32pm 17.3 15.3 15.6 90 1.0 SSW 20 30 11 16 1015.1 1015.0 7.0
03/09:30pm 17.4 15.5 15.7 90 1.0 SSW 20 30 11 16 1015.1 1015.0 6.8
03/09:00pm 17.6 16.3 15.8 89 1.1 SSW 17 26 9 14 1014.7 1014.6 5.8
03/08:59pm 17.6 16.3 15.8 89 1.1 SSW 17 26 9 14 1014.7 1014.6 5.8
03/08:41pm 17.7 16.4 15.9 89 1.1 SW 17 24 9 13 1014.6 1014.5 5.8
03/08:30pm 17.8 17.0 16.0 89 1.1 SW 15 22 8 12 1014.4 1014.3 4.4
03/08:24pm 17.7 16.4 15.7 88 1.2 SSW 17 24 9 13 1014.4 1014.3 4.4
03/08:00pm 18.2 18.1 16.0 87 1.3 SSE 11 15 6 8 1014.4 1014.3 3.0
03/07:56pm 18.4 18.4 16.2 87 1.3 S 11 15 6 8 1014.4 1014.3 2.6
03/07:33pm 18.4 17.4 15.5 83 1.7 SSW 15 24 8 13 1014.1 1014.0 1.4
03/07:30pm 18.5 17.4 15.4 82 1.8 SSW 15 24 8 13 1014.1 1014.0 1.4
03/07:19pm 19.0 17.4 14.9 77 2.4 S 17 28 9 15 1014.1 1014.0 1.2
03/07:00pm 20.5 18.7 14.4 68 3.6 S 17 30 9 16 1013.8 1013.7 0.0
03/06:30pm 21.3 18.0 14.0 63 4.2 S 24 35 13 19 1013.5 1013.4 0.0
03/06:00pm 21.4 18.0 13.8 62 4.4 S 24 32 13 17 1013.3 1013.2 0.0
03/05:30pm 21.7 18.9 15.3 67 3.8 S 24 35 13 19 1013.3 1013.2 0.0
03/05:00pm 20.1 17.1 15.9 77 2.5 SSE 26 43 14 23 1013.2 1013.1 0.0
03/04:30pm 23.8 18.0 13.9 54 5.8 SE 37 57 20 31 1012.9 1012.8 0.0
03/04:01pm 23.0 17.8 12.9 53 5.8 SSE 32 54 17 29 1012.9 1012.8 0.0
03/04:00pm 23.6 18.5 13.2 52 6.0 SSE 32 48 17 26 1012.9 1012.8 0.0
03/03:30pm 24.5 19.1 14.0 52 6.2 SSE 35 56 19 30 1012.8 1012.7 0.0
03/03:02pm 24.1 17.9 12.7 49 6.6 SSE 37 57 20 31 1012.9 1012.8 0.0
03/03:00pm 23.8 17.3 12.8 50 6.3 SSE 39 56 21 30 1012.9 1012.8 0.0
03/02:32pm 24.8 19.3 13.7 50 6.5 SSE 35 54 19 29 1013.1 1013.0 0.0
03/02:30pm 24.6 18.9 14.1 52 6.2 SSE 37 54 20 29 1013.1 1013.0 0.0
03/02:10pm 23.0 16.8 13.8 56 5.4 SSE 39 57 21 31 1013.1 1013.0 0.0
03/02:00pm 24.1 17.9 13.9 53 6.0 SSE 39 56 21 30 1013.1 1013.0 0.0
03/01:30pm 24.5 19.2 14.3 53 6.0 SSE 35 54 19 29 1013.5 1013.4 0.0
03/01:02pm 23.7 19.6 13.8 53 5.8 SSE 28 48 15 26 1013.8 1013.7 0.0
03/01:00pm 23.7 20.6 15.5 60 4.9 S 26 35 14 19 1013.8 1013.7 0.0
03/12:30pm 22.5 20.8 16.3 68 3.8 S 20 35 11 19 1014.3 1014.2 0.0
03/12:00pm 20.6 18.6 16.4 77 2.5 SSW 22 32 12 17 1014.5 1014.4 0.0
03/11:30am 19.7 15.6 14.9 74 2.8 S 30 52 16 28 1014.6 1014.5 0.0
03/11:14am 20.7 16.5 15.7 73 3.0 S 32 50 17 27 1014.5 1014.4 0.0
03/11:00am 23.1 19.4 14.9 60 4.9 SSE 28 43 15 23 1014.1 1014.0 0.0
03/10:30am 22.1 19.7 15.5 66 3.9 S 22 32 12 17 1014.2 1014.1 0.0
03/10:00am 20.0 18.8 16.2 79 2.3 S 17 24 9 13 1014.3 1014.2 7.2
03/09:30am 19.9 17.5 15.5 76 2.6 S 22 32 12 17 1014.3 1014.2 6.8
03/09:00am 19.8 18.2 16.1 79 2.2 S 19 28 10 15 1014.1 1014.0 6.8
03/08:30am 18.8 17.3 16.4 86 1.4 SSW 19 28 10 15 1013.9 1013.8 6.8
03/08:00am 17.2 15.4 15.4 89 1.1 SSW 19 26 10 14 1013.7 1013.6 6.8
03/07:40am 17.0 16.6 15.3 90 1.0 S 11 19 6 10 1013.5 1013.4 6.8
03/07:30am 16.7 15.9 15.1 90 0.9 SSW 13 20 7 11 1013.5 1013.4 6.8
03/07:23am 16.8 16.0 15.2 90 0.9 SSW 13 24 7 13 1013.4 1013.3 6.6
03/07:21am 16.7 15.5 15.1 90 0.9 SSW 15 24 8 13 1013.5 1013.4 6.6
03/07:04am 17.0 14.6 15.3 90 1.0 SSW 22 32 12 17 1013.3 1013.2 6.4
03/07:02am 16.8 14.6 15.0 89 1.0 SSW 20 32 11 17 1013.3 1013.2 6.4
03/07:00am 16.6 14.5 14.8 89 1.0 SSW 19 32 10 17 1013.3 1013.2 6.0
03/06:43am 16.6 13.8 14.4 87 1.3 SSW 22 33 12 18 1013.3 1013.2 6.0
03/06:30am 16.7 15.2 14.3 86 1.4 SSW 15 26 8 14 1012.8 1012.7 5.6
03/06:15am 16.5 15.0 14.3 87 1.3 SSW 15 22 8 12 1012.5 1012.4 5.6
03/06:00am 16.3 14.8 14.1 87 1.2 SSW 15 19 8 10 1012.4 1012.3 5.2
03/05:44am 16.8 15.6 14.1 84 1.5 SSE 13 20 7 11 1012.8 1012.7 4.2
03/05:30am 17.1 15.0 13.6 80 2.0 SSW 17 28 9 15 1012.3 1012.2 3.4
03/05:00am 16.8 15.3 14.1 84 1.5 SSW 15 20 8 11 1012.1 1012.0 3.4
03/04:56am 16.9 15.4 14.2 84 1.5 SSW 15 24 8 13 1012.1 1012.0 3.4
03/04:39am 17.2 14.8 13.9 81 1.9 S 19 26 10 14 1012.3 1012.2 3.4
03/04:30am 17.8 15.3 13.5 76 2.4 SSW 19 28 10 15 1012.2 1012.1 2.8
03/04:00am 18.1 15.5 13.8 76 2.5 SSW 20 35 11 19 1011.9 1011.8 2.8
03/03:30am 18.2 15.5 13.5 74 2.7 SSW 20 30 11 16 1011.8 1011.7 2.8
03/03:00am 17.8 15.6 13.3 75 2.5 SSW 17 24 9 13 1011.6 1011.5 2.8
03/02:30am 17.9 15.6 14.0 78 2.2 SSW 19 28 10 15 1011.7 1011.6 2.8
03/02:00am 18.1 15.8 14.0 77 2.3 S 19 28 10 15 1012.1 1012.0 2.6
03/01:30am 18.2 15.6 13.9 76 2.5 SSW 20 32 11 17 1012.2 1012.1 2.6
03/01:00am 18.1 15.6 14.0 77 2.3 S 20 28 11 15 1012.4 1012.3 2.6
03/12:30am 18.0 15.6 14.3 79 2.1 SSW 20 35 11 19 1012.3 1012.2 2.6
03/12:00am 17.9 15.8 14.6 81 1.9 SSW 19 32 10 17 1012.7 1012.6 2.2
 
Date/Time
EDT
Temp
°C
App
Temp
°C
Dew
Point
°C
Rel
Hum
%
Delta-T
°C
Wind Press
QNH
hPa
Press
MSL
hPa
Rain since
9am
mm
Dir  Spd
km/h
Gust
km/h
Spd
kts
Gust
kts
02/11:30pm 18.3 15.5 14.2 77 2.4 SSW 22 33 12 18 1012.7 1012.6 2.0
02/11:00pm 17.9 15.8 14.8 82 1.8 SSW 19 30 10 16 1012.8 1012.7 2.0
02/10:30pm 18.1 15.4 14.6 80 2.0 S 22 35 12 19 1012.6 1012.5 1.8
02/10:00pm 18.8 15.9 14.1 74 2.7 S 22 33 12 18 1012.5 1012.4 1.8
02/09:30pm 18.6 15.7 14.1 75 2.6 S 22 35 12 19 1012.3 1012.2 1.8
02/09:00pm 19.6 16.7 12.8 65 3.8 S 20 32 11 17 1011.9 1011.8 1.8
02/08:30pm 19.7 15.7 12.9 65 3.8 SSW 26 43 14 23 1011.4 1011.3 1.8
02/08:00pm 19.5 15.8 12.8 65 3.8 SSW 24 35 13 19 1011.1 1011.0 1.8
02/07:30pm 20.0 15.8 12.5 62 4.2 SSW 26 41 14 22 1010.9 1010.8 1.8

Other formats

Comma delimited format used in spreadsheet applications
http://www.bom.gov.au/fwo/IDN60801/IDN60801.94592.axf

JavaScript Object Notation format (JSON) in row-major order
http://www.bom.gov.au/fwo/IDN60801/IDN60801.94592.json

Data quality

Most of these data are generated automatically and are frequently updated. Quality checks on data are not normally performed. It is possible for incorrect values to appear. Refer to information at About Latest Weather Observations and please check the disclaimer before using these data.